Airport Name : Freetown Lungi

Other Name : Freetown Lungi

ICAO : GFLL

IATA : FNA

FAA :

Latitude : 8.616444

Longitude : -13.195489

Country : Sierra Leone

Local Date and Time : 24 Nov 2020 09:12

 

TAF (Terminal Aerodrome Forecast)

TAF GFLL 240500Z 2406/2412 26006KT 9999 BKN010 FEW027CB TEMPO 2406/2410 VRB02KT 5000 BR BKN012 BECMG 2411/2413 22006KT 8000 HZ BKN012

 

METAR (METeorological Aerodrome Report)

GFLL 240900Z 16008KT 7000 -BR BKN012 27/23 Q1012

GFLL 240800Z 09006KT 6000 -BR BKN012 26/23 Q1011

To Charter a Jet Click here.